sensor_id;sensor_type;location;lat;lon;timestamp;temperature;humidity
5246;DHT22;54412;51.206;6.888;2022-10-31T00:02:21;15.60;99.90
5246;DHT22;54412;51.206;6.888;2022-10-31T00:04:47;15.70;99.90
5246;DHT22;54412;51.206;6.888;2022-10-31T00:07:12;15.70;99.90
5246;DHT22;54412;51.206;6.888;2022-10-31T00:09:38;15.70;99.90
5246;DHT22;54412;51.206;6.888;2022-10-31T00:12:04;15.60;99.90
5246;DHT22;54412;51.206;6.888;2022-10-31T00:14:29;15.60;99.90
5246;DHT22;54412;51.206;6.888;2022-10-31T00:16:55;15.60;99.90
5246;DHT22;54412;51.206;6.888;2022-10-31T00:19:21;15.40;99.90
5246;DHT22;54412;51.206;6.888;2022-10-31T00:21:46;15.50;99.90
5246;DHT22;54412;51.206;6.888;2022-10-31T00:24:16;15.50;99.90
5246;DHT22;54412;51.206;6.888;2022-10-31T00:26:42;15.50;99.90
5246;DHT22;54412;51.206;6.888;2022-10-31T00:29:08;15.50;99.90
5246;DHT22;54412;51.206;6.888;2022-10-31T00:31:33;15.50;99.90
5246;DHT22;54412;51.206;6.888;2022-10-31T00:33:59;15.40;99.90
5246;DHT22;54412;51.206;6.888;2022-10-31T00:36:25;15.30;99.90
5246;DHT22;54412;51.206;6.888;2022-10-31T00:38:51;15.40;99.90
5246;DHT22;54412;51.206;6.888;2022-10-31T00:41:17;15.40;99.90
5246;DHT22;54412;51.206;6.888;2022-10-31T00:43:43;15.30;99.90
5246;DHT22;54412;51.206;6.888;2022-10-31T00:46:10;15.40;99.90
5246;DHT22;54412;51.206;6.888;2022-10-31T00:48:36;15.40;99.90
5246;DHT22;54412;51.206;6.888;2022-10-31T00:51:02;15.40;99.90
5246;DHT22;54412;51.206;6.888;2022-10-31T00:53:28;15.40;99.90
5246;DHT22;54412;51.206;6.888;2022-10-31T00:55:54;15.40;99.90
5246;DHT22;54412;51.206;6.888;2022-10-31T00:58:19;15.50;99.90
5246;DHT22;54412;51.206;6.888;2022-10-31T01:00:49;15.60;99.90
5246;DHT22;54412;51.206;6.888;2022-10-31T01:03:29;15.50;99.90
5246;DHT22;54412;51.206;6.888;2022-10-31T01:06:03;15.40;99.90
5246;DHT22;54412;51.206;6.888;2022-10-31T01:08:31;15.40;99.90
5246;DHT22;54412;51.206;6.888;2022-10-31T01:11:02;15.50;99.90
5246;DHT22;54412;51.206;6.888;2022-10-31T01:13:36;15.50;99.90
5246;DHT22;54412;51.206;6.888;2022-10-31T01:16:02;15.60;99.90
5246;DHT22;54412;51.206;6.888;2022-10-31T01:18:30;15.60;99.90
5246;DHT22;54412;51.206;6.888;2022-10-31T01:20:58;15.60;99.90
5246;DHT22;54412;51.206;6.888;2022-10-31T01:23:30;15.40;99.90
5246;DHT22;54412;51.206;6.888;2022-10-31T01:26:06;15.50;99.90
5246;DHT22;54412;51.206;6.888;2022-10-31T01:28:40;15.60;99.90
5246;DHT22;54412;51.206;6.888;2022-10-31T01:31:31;15.60;99.90
5246;DHT22;54412;51.206;6.888;2022-10-31T01:33:59;15.60;99.90
5246;DHT22;54412;51.206;6.888;2022-10-31T01:36:35;15.50;99.90
5246;DHT22;54412;51.206;6.888;2022-10-31T01:39:13;15.60;99.90
5246;DHT22;54412;51.206;6.888;2022-10-31T01:41:42;15.60;99.90
5246;DHT22;54412;51.206;6.888;2022-10-31T01:49:51;15.20;99.90
5246;DHT22;54412;51.206;6.888;2022-10-31T01:52:44;15.20;99.90
5246;DHT22;54412;51.206;6.888;2022-10-31T01:55:22;15.30;99.90
5246;DHT22;54412;51.206;6.888;2022-10-31T01:57:54;15.30;99.90
5246;DHT22;54412;51.206;6.888;2022-10-31T02:00:24;15.30;99.90
5246;DHT22;54412;51.206;6.888;2022-10-31T02:02:50;15.40;99.90
5246;DHT22;54412;51.206;6.888;2022-10-31T02:05:20;15.20;99.90
5246;DHT22;54412;51.206;6.888;2022-10-31T02:08:32;15.10;99.90
5246;DHT22;54412;51.206;6.888;2022-10-31T02:11:01;15.10;99.90
5246;DHT22;54412;51.206;6.888;2022-10-31T02:13:28;15.10;99.90
5246;DHT22;54412;51.206;6.888;2022-10-31T02:15:57;15.10;99.90
5246;DHT22;54412;51.206;6.888;2022-10-31T02:18:26;15.10;99.90
5246;DHT22;54412;51.206;6.888;2022-10-31T02:21:16;15.00;99.90
5246;DHT22;54412;51.206;6.888;2022-10-31T02:29:54;14.90;99.90
5246;DHT22;54412;51.206;6.888;2022-10-31T02:32:39;14.90;99.90
5246;DHT22;54412;51.206;6.888;2022-10-31T02:47:37;14.90;99.90
5246;DHT22;54412;51.206;6.888;2022-10-31T02:54:53;14.70;99.90
5246;DHT22;54412;51.206;6.888;2022-10-31T02:57:37;14.80;99.90
5246;DHT22;54412;51.206;6.888;2022-10-31T03:00:08;14.90;99.90
5246;DHT22;54412;51.206;6.888;2022-10-31T03:08:21;14.80;99.90
5246;DHT22;54412;51.206;6.888;2022-10-31T03:11:01;14.90;99.90
5246;DHT22;54412;51.206;6.888;2022-10-31T03:13:42;15.00;99.90
5246;DHT22;54412;51.206;6.888;2022-10-31T03:19:11;15.10;99.90
5246;DHT22;54412;51.206;6.888;2022-10-31T03:21:59;15.00;99.90
5246;DHT22;54412;51.206;6.888;2022-10-31T03:24:34;15.00;99.90
5246;DHT22;54412;51.206;6.888;2022-10-31T03:27:04;15.00;99.90
5246;DHT22;54412;51.206;6.888;2022-10-31T03:29:35;15.10;99.90
5246;DHT22;54412;51.206;6.888;2022-10-31T03:32:13;15.10;99.90
5246;DHT22;54412;51.206;6.888;2022-10-31T03:34:43;15.00;99.90
5246;DHT22;54412;51.206;6.888;2022-10-31T03:37:14;15.00;99.90
5246;DHT22;54412;51.206;6.888;2022-10-31T03:39:44;15.00;99.90
5246;DHT22;54412;51.206;6.888;2022-10-31T03:42:17;15.10;99.90
5246;DHT22;54412;51.206;6.888;2022-10-31T03:44:53;15.00;99.90
5246;DHT22;54412;51.206;6.888;2022-10-31T03:47:26;14.90;99.90
5246;DHT22;54412;51.206;6.888;2022-10-31T03:49:52;15.00;99.90
5246;DHT22;54412;51.206;6.888;2022-10-31T03:55:19;14.90;99.90
5246;DHT22;54412;51.206;6.888;2022-10-31T03:57:59;14.90;99.90
5246;DHT22;54412;51.206;6.888;2022-10-31T04:00:26;14.80;99.90
5246;DHT22;54412;51.206;6.888;2022-10-31T04:03:12;14.90;99.90
5246;DHT22;54412;51.206;6.888;2022-10-31T04:05:44;15.10;99.90
5246;DHT22;54412;51.206;6.888;2022-10-31T04:08:16;15.10;99.90
5246;DHT22;54412;51.206;6.888;2022-10-31T04:10:47;15.10;99.90
5246;DHT22;54412;51.206;6.888;2022-10-31T04:13:17;15.00;99.90
5246;DHT22;54412;51.206;6.888;2022-10-31T04:15:52;14.90;99.90
5246;DHT22;54412;51.206;6.888;2022-10-31T04:18:20;14.70;99.90
5246;DHT22;54412;51.206;6.888;2022-10-31T04:20:47;14.70;99.90
5246;DHT22;54412;51.206;6.888;2022-10-31T04:23:21;14.70;99.90
5246;DHT22;54412;51.206;6.888;2022-10-31T04:25:49;14.70;99.90
5246;DHT22;54412;51.206;6.888;2022-10-31T04:28:15;14.70;99.90
5246;DHT22;54412;51.206;6.888;2022-10-31T04:30:40;14.70;99.90
5246;DHT22;54412;51.206;6.888;2022-10-31T04:33:06;14.80;99.90
5246;DHT22;54412;51.206;6.888;2022-10-31T04:35:32;14.90;99.90
5246;DHT22;54412;51.206;6.888;2022-10-31T04:37:57;14.90;99.90
5246;DHT22;54412;51.206;6.888;2022-10-31T04:40:23;14.80;99.90
5246;DHT22;54412;51.206;6.888;2022-10-31T04:42:48;14.80;99.90
5246;DHT22;54412;51.206;6.888;2022-10-31T04:45:14;14.80;99.90
5246;DHT22;54412;51.206;6.888;2022-10-31T04:47:40;14.80;99.90
5246;DHT22;54412;51.206;6.888;2022-10-31T04:50:06;14.70;99.90
5246;DHT22;54412;51.206;6.888;2022-10-31T04:52:31;14.60;99.90
5246;DHT22;54412;51.206;6.888;2022-10-31T04:54:57;14.60;99.90
5246;DHT22;54412;51.206;6.888;2022-10-31T04:57:23;14.60;99.90
5246;DHT22;54412;51.206;6.888;2022-10-31T04:59:48;14.60;99.90
5246;DHT22;54412;51.206;6.888;2022-10-31T05:02:14;14.60;99.90
5246;DHT22;54412;51.206;6.888;2022-10-31T05:04:40;14.60;99.90
5246;DHT22;54412;51.206;6.888;2022-10-31T05:07:05;14.70;99.90
5246;DHT22;54412;51.206;6.888;2022-10-31T05:09:31;14.60;99.90
5246;DHT22;54412;51.206;6.888;2022-10-31T05:11:57;14.60;99.90
5246;DHT22;54412;51.206;6.888;2022-10-31T05:14:22;14.50;99.90
5246;DHT22;54412;51.206;6.888;2022-10-31T05:16:48;14.50;99.90
5246;DHT22;54412;51.206;6.888;2022-10-31T05:19:13;14.50;99.90
5246;DHT22;54412;51.206;6.888;2022-10-31T05:21:39;14.60;99.90
5246;DHT22;54412;51.206;6.888;2022-10-31T05:24:05;14.60;99.90
5246;DHT22;54412;51.206;6.888;2022-10-31T05:26:31;14.60;99.90
5246;DHT22;54412;51.206;6.888;2022-10-31T05:28:57;14.50;99.90
5246;DHT22;54412;51.206;6.888;2022-10-31T05:31:22;14.50;99.90
5246;DHT22;54412;51.206;6.888;2022-10-31T05:33:48;14.60;99.90
5246;DHT22;54412;51.206;6.888;2022-10-31T05:36:14;14.60;99.90
5246;DHT22;54412;51.206;6.888;2022-10-31T05:38:39;14.60;99.90
5246;DHT22;54412;51.206;6.888;2022-10-31T05:41:05;14.60;99.90
5246;DHT22;54412;51.206;6.888;2022-10-31T05:43:31;14.50;99.90
5246;DHT22;54412;51.206;6.888;2022-10-31T05:45:57;14.50;99.90
5246;DHT22;54412;51.206;6.888;2022-10-31T05:48:22;14.60;99.90
5246;DHT22;54412;51.206;6.888;2022-10-31T05:50:49;14.60;99.90
5246;DHT22;54412;51.206;6.888;2022-10-31T05:53:15;14.60;99.90
5246;DHT22;54412;51.206;6.888;2022-10-31T05:55:42;14.60;99.90
5246;DHT22;54412;51.206;6.888;2022-10-31T05:58:09;14.50;99.90
5246;DHT22;54412;51.206;6.888;2022-10-31T06:00:35;14.40;99.90
5246;DHT22;54412;51.206;6.888;2022-10-31T06:03:03;14.30;99.90
5246;DHT22;54412;51.206;6.888;2022-10-31T06:05:32;14.30;99.90
5246;DHT22;54412;51.206;6.888;2022-10-31T06:07:58;14.40;99.90
5246;DHT22;54412;51.206;6.888;2022-10-31T06:10:24;14.40;99.90
5246;DHT22;54412;51.206;6.888;2022-10-31T06:12:50;14.40;99.90
5246;DHT22;54412;51.206;6.888;2022-10-31T06:15:16;14.40;99.90
5246;DHT22;54412;51.206;6.888;2022-10-31T06:17:42;14.40;99.90
5246;DHT22;54412;51.206;6.888;2022-10-31T06:20:09;14.40;99.90
5246;DHT22;54412;51.206;6.888;2022-10-31T06:22:35;14.40;99.90
5246;DHT22;54412;51.206;6.888;2022-10-31T06:25:01;14.30;99.90
5246;DHT22;54412;51.206;6.888;2022-10-31T06:27:27;14.30;99.90
5246;DHT22;54412;51.206;6.888;2022-10-31T06:29:53;14.40;99.90
5246;DHT22;54412;51.206;6.888;2022-10-31T06:32:19;14.40;99.90
5246;DHT22;54412;51.206;6.888;2022-10-31T06:34:44;14.40;99.90
5246;DHT22;54412;51.206;6.888;2022-10-31T06:37:13;14.40;99.90
5246;DHT22;54412;51.206;6.888;2022-10-31T06:39:39;14.40;99.90
5246;DHT22;54412;51.206;6.888;2022-10-31T06:42:05;14.30;99.90
5246;DHT22;54412;51.206;6.888;2022-10-31T06:44:31;14.30;99.90
5246;DHT22;54412;51.206;6.888;2022-10-31T06:46:57;14.30;99.90
5246;DHT22;54412;51.206;6.888;2022-10-31T06:49:23;14.40;99.90
5246;DHT22;54412;51.206;6.888;2022-10-31T06:51:49;14.40;99.90
5246;DHT22;54412;51.206;6.888;2022-10-31T06:54:16;14.20;99.90
5246;DHT22;54412;51.206;6.888;2022-10-31T06:56:42;14.20;99.90
5246;DHT22;54412;51.206;6.888;2022-10-31T06:59:08;14.30;99.90
5246;DHT22;54412;51.206;6.888;2022-10-31T07:01:33;14.30;99.90
5246;DHT22;54412;51.206;6.888;2022-10-31T07:03:59;14.30;99.90
5246;DHT22;54412;51.206;6.888;2022-10-31T07:06:25;14.40;99.90
5246;DHT22;54412;51.206;6.888;2022-10-31T07:08:50;14.50;99.90
5246;DHT22;54412;51.206;6.888;2022-10-31T07:11:16;14.50;99.90
5246;DHT22;54412;51.206;6.888;2022-10-31T07:13:42;14.50;99.90
5246;DHT22;54412;51.206;6.888;2022-10-31T07:16:08;14.60;99.90
5246;DHT22;54412;51.206;6.888;2022-10-31T07:18:35;14.60;99.90
5246;DHT22;54412;51.206;6.888;2022-10-31T07:21:01;14.60;99.90
5246;DHT22;54412;51.206;6.888;2022-10-31T07:23:27;14.60;99.90
5246;DHT22;54412;51.206;6.888;2022-10-31T07:25:56;14.60;99.90
5246;DHT22;54412;51.206;6.888;2022-10-31T07:28:24;14.60;99.90
5246;DHT22;54412;51.206;6.888;2022-10-31T07:30:56;14.60;99.90
5246;DHT22;54412;51.206;6.888;2022-10-31T07:33:23;14.60;99.90
5246;DHT22;54412;51.206;6.888;2022-10-31T07:35:53;14.60;99.90
5246;DHT22;54412;51.206;6.888;2022-10-31T07:38:19;14.50;99.90
5246;DHT22;54412;51.206;6.888;2022-10-31T07:40:50;14.60;99.90
5246;DHT22;54412;51.206;6.888;2022-10-31T07:43:19;14.70;99.90
5246;DHT22;54412;51.206;6.888;2022-10-31T07:45:52;14.70;99.90
5246;DHT22;54412;51.206;6.888;2022-10-31T07:48:19;14.80;99.90
5246;DHT22;54412;51.206;6.888;2022-10-31T07:50:45;14.90;99.90
5246;DHT22;54412;51.206;6.888;2022-10-31T07:53:12;14.90;99.90
5246;DHT22;54412;51.206;6.888;2022-10-31T07:55:39;14.90;99.90
5246;DHT22;54412;51.206;6.888;2022-10-31T07:58:07;14.80;99.90
5246;DHT22;54412;51.206;6.888;2022-10-31T08:00:39;14.70;99.90
5246;DHT22;54412;51.206;6.888;2022-10-31T08:03:11;14.90;99.90
5246;DHT22;54412;51.206;6.888;2022-10-31T08:05:42;14.80;99.90
5246;DHT22;54412;51.206;6.888;2022-10-31T08:08:10;14.80;99.90
5246;DHT22;54412;51.206;6.888;2022-10-31T08:10:36;14.90;99.90
5246;DHT22;54412;51.206;6.888;2022-10-31T08:13:08;15.10;99.90
5246;DHT22;54412;51.206;6.888;2022-10-31T08:15:36;15.20;99.90
5246;DHT22;54412;51.206;6.888;2022-10-31T08:18:05;15.30;99.90
5246;DHT22;54412;51.206;6.888;2022-10-31T08:20:32;15.40;99.90
5246;DHT22;54412;51.206;6.888;2022-10-31T08:22:59;15.50;99.90
5246;DHT22;54412;51.206;6.888;2022-10-31T08:25:31;15.60;99.90
5246;DHT22;54412;51.206;6.888;2022-10-31T08:27:58;15.70;99.90
5246;DHT22;54412;51.206;6.888;2022-10-31T08:30:26;15.60;99.90
5246;DHT22;54412;51.206;6.888;2022-10-31T08:33:16;15.70;99.90
5246;DHT22;54412;51.206;6.888;2022-10-31T08:35:43;15.60;99.90
5246;DHT22;54412;51.206;6.888;2022-10-31T08:38:10;15.80;99.90
5246;DHT22;54412;51.206;6.888;2022-10-31T08:40:38;16.00;99.90
5246;DHT22;54412;51.206;6.888;2022-10-31T08:43:12;16.10;99.90
5246;DHT22;54412;51.206;6.888;2022-10-31T08:45:39;16.10;99.90
5246;DHT22;54412;51.206;6.888;2022-10-31T08:48:09;16.10;99.90
5246;DHT22;54412;51.206;6.888;2022-10-31T08:50:36;16.10;99.90
5246;DHT22;54412;51.206;6.888;2022-10-31T08:53:08;16.30;99.90
5246;DHT22;54412;51.206;6.888;2022-10-31T08:55:37;16.40;99.90
5246;DHT22;54412;51.206;6.888;2022-10-31T08:58:07;16.20;99.90
5246;DHT22;54412;51.206;6.888;2022-10-31T09:00:35;16.30;99.90
5246;DHT22;54412;51.206;6.888;2022-10-31T09:03:08;16.20;99.90
5246;DHT22;54412;51.206;6.888;2022-10-31T09:05:36;16.10;99.90
5246;DHT22;54412;51.206;6.888;2022-10-31T09:08:04;16.30;99.90
5246;DHT22;54412;51.206;6.888;2022-10-31T09:10:31;16.30;99.90
5246;DHT22;54412;51.206;6.888;2022-10-31T09:13:19;16.20;99.90
5246;DHT22;54412;51.206;6.888;2022-10-31T09:15:47;16.10;99.90
5246;DHT22;54412;51.206;6.888;2022-10-31T09:18:15;16.00;99.90
5246;DHT22;54412;51.206;6.888;2022-10-31T09:20:43;15.90;99.90
5246;DHT22;54412;51.206;6.888;2022-10-31T09:23:17;15.90;99.90
5246;DHT22;54412;51.206;6.888;2022-10-31T09:25:45;15.90;99.90
5246;DHT22;54412;51.206;6.888;2022-10-31T09:28:14;15.90;99.90
5246;DHT22;54412;51.206;6.888;2022-10-31T09:30:41;16.10;99.90
5246;DHT22;54412;51.206;6.888;2022-10-31T09:33:11;16.10;99.90
5246;DHT22;54412;51.206;6.888;2022-10-31T09:35:39;16.20;99.90
5246;DHT22;54412;51.206;6.888;2022-10-31T09:38:08;16.30;99.90
5246;DHT22;54412;51.206;6.888;2022-10-31T09:40:40;16.40;99.90
5246;DHT22;54412;51.206;6.888;2022-10-31T09:45:50;16.50;99.90
5246;DHT22;54412;51.206;6.888;2022-10-31T09:51:05;16.50;99.90
5246;DHT22;54412;51.206;6.888;2022-10-31T09:56:20;16.90;99.90
5246;DHT22;54412;51.206;6.888;2022-10-31T09:58:55;17.30;99.90
5246;DHT22;54412;51.206;6.888;2022-10-31T10:02:34;17.50;99.90
5246;DHT22;54412;51.206;6.888;2022-10-31T10:10:43;17.90;99.90
5246;DHT22;54412;51.206;6.888;2022-10-31T10:13:36;18.10;99.90
5246;DHT22;54412;51.206;6.888;2022-10-31T10:30:44;18.40;99.90
5246;DHT22;54412;51.206;6.888;2022-10-31T10:35:55;18.20;99.90
5246;DHT22;54412;51.206;6.888;2022-10-31T10:41:12;17.90;99.90
5246;DHT22;54412;51.206;6.888;2022-10-31T10:43:42;17.90;99.90
5246;DHT22;54412;51.206;6.888;2022-10-31T10:49:50;17.90;99.90
5246;DHT22;54412;51.206;6.888;2022-10-31T10:55:25;18.00;99.90
5246;DHT22;54412;51.206;6.888;2022-10-31T10:58:07;18.10;99.90
5246;DHT22;54412;51.206;6.888;2022-10-31T11:00:42;18.10;99.90
5246;DHT22;54412;51.206;6.888;2022-10-31T11:03:12;18.00;99.90
5246;DHT22;54412;51.206;6.888;2022-10-31T11:14:00;18.40;99.90
5246;DHT22;54412;51.206;6.888;2022-10-31T11:16:31;18.50;99.90
5246;DHT22;54412;51.206;6.888;2022-10-31T11:19:26;18.70;99.90
5246;DHT22;54412;51.206;6.888;2022-10-31T11:21:53;18.70;99.90
5246;DHT22;54412;51.206;6.888;2022-10-31T11:24:22;18.70;99.90
5246;DHT22;54412;51.206;6.888;2022-10-31T11:26:50;18.60;99.90
5246;DHT22;54412;51.206;6.888;2022-10-31T11:29:27;18.70;99.90
5246;DHT22;54412;51.206;6.888;2022-10-31T11:31:55;18.70;99.90
5246;DHT22;54412;51.206;6.888;2022-10-31T11:34:42;18.80;99.90
5246;DHT22;54412;51.206;6.888;2022-10-31T11:37:21;18.70;99.90
5246;DHT22;54412;51.206;6.888;2022-10-31T11:39:57;18.80;99.90
5246;DHT22;54412;51.206;6.888;2022-10-31T11:42:28;18.90;99.90
5246;DHT22;54412;51.206;6.888;2022-10-31T11:45:29;18.90;99.90
5246;DHT22;54412;51.206;6.888;2022-10-31T11:48:00;19.00;99.90
5246;DHT22;54412;51.206;6.888;2022-10-31T11:53:02;19.00;99.90
5246;DHT22;54412;51.206;6.888;2022-10-31T11:55:33;19.10;99.90
5246;DHT22;54412;51.206;6.888;2022-10-31T11:58:03;19.20;99.90
5246;DHT22;54412;51.206;6.888;2022-10-31T12:00:49;19.20;99.90
5246;DHT22;54412;51.206;6.888;2022-10-31T12:06:00;19.40;99.90
5246;DHT22;54412;51.206;6.888;2022-10-31T12:08:32;19.50;99.90
5246;DHT22;54412;51.206;6.888;2022-10-31T12:17:11;19.70;99.90
5246;DHT22;54412;51.206;6.888;2022-10-31T12:26:42;20.20;99.90
5246;DHT22;54412;51.206;6.888;2022-10-31T12:29:29;20.30;99.90
5246;DHT22;54412;51.206;6.888;2022-10-31T12:32:29;20.40;99.90
5246;DHT22;54412;51.206;6.888;2022-10-31T12:35:05;20.40;99.90
5246;DHT22;54412;51.206;6.888;2022-10-31T12:43:57;20.30;99.90
5246;DHT22;54412;51.206;6.888;2022-10-31T12:55:40;20.40;99.90
5246;DHT22;54412;51.206;6.888;2022-10-31T13:00:50;20.20;99.90
5246;DHT22;54412;51.206;6.888;2022-10-31T13:03:42;20.10;99.90
5246;DHT22;54412;51.206;6.888;2022-10-31T13:06:18;20.10;99.90
5246;DHT22;54412;51.206;6.888;2022-10-31T13:08:53;20.00;99.90
5246;DHT22;54412;51.206;6.888;2022-10-31T13:11:25;20.00;99.90
5246;DHT22;54412;51.206;6.888;2022-10-31T13:14:07;20.00;99.90
5246;DHT22;54412;51.206;6.888;2022-10-31T13:16:40;20.00;99.90
5246;DHT22;54412;51.206;6.888;2022-10-31T13:19:27;19.90;99.90
5246;DHT22;54412;51.206;6.888;2022-10-31T13:22:08;20.00;99.90
5246;DHT22;54412;51.206;6.888;2022-10-31T13:25:03;20.00;99.90
5246;DHT22;54412;51.206;6.888;2022-10-31T13:27:47;19.90;99.90
5246;DHT22;54412;51.206;6.888;2022-10-31T13:30:25;19.90;99.90
5246;DHT22;54412;51.206;6.888;2022-10-31T13:33:12;19.90;99.90
5246;DHT22;54412;51.206;6.888;2022-10-31T13:38:54;19.90;99.90
5246;DHT22;54412;51.206;6.888;2022-10-31T13:44:38;19.90;99.90
5246;DHT22;54412;51.206;6.888;2022-10-31T13:47:26;19.90;99.90
5246;DHT22;54412;51.206;6.888;2022-10-31T13:50:30;19.90;99.90
5246;DHT22;54412;51.206;6.888;2022-10-31T13:55:46;19.80;99.90
5246;DHT22;54412;51.206;6.888;2022-10-31T14:01:02;19.80;99.90
5246;DHT22;54412;51.206;6.888;2022-10-31T14:03:29;19.80;99.90
5246;DHT22;54412;51.206;6.888;2022-10-31T14:05:58;19.70;99.90
5246;DHT22;54412;51.206;6.888;2022-10-31T14:08:24;19.70;99.90
5246;DHT22;54412;51.206;6.888;2022-10-31T14:10:52;19.70;99.90
5246;DHT22;54412;51.206;6.888;2022-10-31T14:16:00;19.60;99.90
5246;DHT22;54412;51.206;6.888;2022-10-31T14:18:38;19.60;99.90
5246;DHT22;54412;51.206;6.888;2022-10-31T14:21:29;19.50;99.90
5246;DHT22;54412;51.206;6.888;2022-10-31T14:27:03;19.60;99.90
5246;DHT22;54412;51.206;6.888;2022-10-31T14:29:31;19.60;99.90
5246;DHT22;54412;51.206;6.888;2022-10-31T14:32:22;19.50;99.90
5246;DHT22;54412;51.206;6.888;2022-10-31T14:41:03;19.40;99.90
5246;DHT22;54412;51.206;6.888;2022-10-31T14:43:55;19.40;99.90
5246;DHT22;54412;51.206;6.888;2022-10-31T14:49:31;19.40;99.90
5246;DHT22;54412;51.206;6.888;2022-10-31T14:52:07;19.40;99.90
5246;DHT22;54412;51.206;6.888;2022-10-31T14:54:42;19.40;99.90
5246;DHT22;54412;51.206;6.888;2022-10-31T14:57:20;19.40;99.90
5246;DHT22;54412;51.206;6.888;2022-10-31T15:00:01;19.40;99.90
5246;DHT22;54412;51.206;6.888;2022-10-31T15:03:05;19.30;99.90
5246;DHT22;54412;51.206;6.888;2022-10-31T15:05:51;19.40;99.90
5246;DHT22;54412;51.206;6.888;2022-10-31T15:08:39;19.40;99.90
5246;DHT22;54412;51.206;6.888;2022-10-31T15:11:14;19.40;99.90
5246;DHT22;54412;51.206;6.888;2022-10-31T15:13:49;19.40;99.90
5246;DHT22;54412;51.206;6.888;2022-10-31T15:16:20;19.30;99.90
5246;DHT22;54412;51.206;6.888;2022-10-31T15:18:58;19.30;99.90
5246;DHT22;54412;51.206;6.888;2022-10-31T15:21:27;19.30;99.90
5246;DHT22;54412;51.206;6.888;2022-10-31T15:23:56;19.40;99.90
5246;DHT22;54412;51.206;6.888;2022-10-31T15:26:27;19.40;99.90
5246;DHT22;54412;51.206;6.888;2022-10-31T15:29:05;19.40;99.90
5246;DHT22;54412;51.206;6.888;2022-10-31T15:31:37;19.30;99.90
5246;DHT22;54412;51.206;6.888;2022-10-31T15:34:07;19.40;99.90
5246;DHT22;54412;51.206;6.888;2022-10-31T15:36:41;19.30;99.90
5246;DHT22;54412;51.206;6.888;2022-10-31T15:39:11;19.30;99.90
5246;DHT22;54412;51.206;6.888;2022-10-31T15:41:49;19.30;99.90
5246;DHT22;54412;51.206;6.888;2022-10-31T15:44:22;19.30;99.90
5246;DHT22;54412;51.206;6.888;2022-10-31T15:46:54;19.30;99.90
5246;DHT22;54412;51.206;6.888;2022-10-31T15:52:10;19.20;99.90
5246;DHT22;54412;51.206;6.888;2022-10-31T15:54:47;19.20;99.90
5246;DHT22;54412;51.206;6.888;2022-10-31T15:57:16;19.20;99.90
5246;DHT22;54412;51.206;6.888;2022-10-31T15:59:46;19.10;99.90
5246;DHT22;54412;51.206;6.888;2022-10-31T16:02:17;19.10;99.90
5246;DHT22;54412;51.206;6.888;2022-10-31T16:04:56;19.10;99.90
5246;DHT22;54412;51.206;6.888;2022-10-31T16:07:24;19.10;99.90
5246;DHT22;54412;51.206;6.888;2022-10-31T16:09:53;19.00;99.90
5246;DHT22;54412;51.206;6.888;2022-10-31T16:12:23;19.00;99.90
5246;DHT22;54412;51.206;6.888;2022-10-31T16:14:52;19.00;99.90
5246;DHT22;54412;51.206;6.888;2022-10-31T16:17:21;19.00;99.90
5246;DHT22;54412;51.206;6.888;2022-10-31T16:19:59;18.90;99.90
5246;DHT22;54412;51.206;6.888;2022-10-31T16:22:32;18.90;99.90
5246;DHT22;54412;51.206;6.888;2022-10-31T16:27:39;18.90;99.90
5246;DHT22;54412;51.206;6.888;2022-10-31T16:30:37;18.80;99.90
5246;DHT22;54412;51.206;6.888;2022-10-31T16:33:26;18.80;99.90
5246;DHT22;54412;51.206;6.888;2022-10-31T16:35:53;18.80;99.90
5246;DHT22;54412;51.206;6.888;2022-10-31T16:38:20;18.80;99.90
5246;DHT22;54412;51.206;6.888;2022-10-31T16:40:46;18.80;99.90
5246;DHT22;54412;51.206;6.888;2022-10-31T16:43:13;18.70;99.90
5246;DHT22;54412;51.206;6.888;2022-10-31T16:45:48;18.70;99.90
5246;DHT22;54412;51.206;6.888;2022-10-31T16:48:18;18.70;99.90
5246;DHT22;54412;51.206;6.888;2022-10-31T16:50:47;18.60;99.90
5246;DHT22;54412;51.206;6.888;2022-10-31T16:53:14;18.60;99.90
5246;DHT22;54412;51.206;6.888;2022-10-31T16:55:46;18.60;99.90
5246;DHT22;54412;51.206;6.888;2022-10-31T16:58:32;18.60;99.90
5246;DHT22;54412;51.206;6.888;2022-10-31T17:01:00;18.60;99.90
5246;DHT22;54412;51.206;6.888;2022-10-31T17:03:27;18.60;99.90
5246;DHT22;54412;51.206;6.888;2022-10-31T17:05:53;18.60;99.90
5246;DHT22;54412;51.206;6.888;2022-10-31T17:08:20;18.60;99.90
5246;DHT22;54412;51.206;6.888;2022-10-31T17:10:47;18.60;99.90
5246;DHT22;54412;51.206;6.888;2022-10-31T17:13:20;18.50;99.90
5246;DHT22;54412;51.206;6.888;2022-10-31T17:15:51;18.50;99.90
5246;DHT22;54412;51.206;6.888;2022-10-31T17:18:19;18.50;99.90
5246;DHT22;54412;51.206;6.888;2022-10-31T17:20:45;18.50;99.90
5246;DHT22;54412;51.206;6.888;2022-10-31T17:23:14;18.50;99.90
5246;DHT22;54412;51.206;6.888;2022-10-31T17:25:41;18.40;99.90
5246;DHT22;54412;51.206;6.888;2022-10-31T17:28:11;18.40;99.90
5246;DHT22;54412;51.206;6.888;2022-10-31T17:30:39;18.30;99.90
5246;DHT22;54412;51.206;6.888;2022-10-31T17:33:09;18.30;99.90
5246;DHT22;54412;51.206;6.888;2022-10-31T17:35:36;18.30;99.90
5246;DHT22;54412;51.206;6.888;2022-10-31T17:38:01;18.30;99.90
5246;DHT22;54412;51.206;6.888;2022-10-31T17:40:27;18.30;99.90
5246;DHT22;54412;51.206;6.888;2022-10-31T17:42:55;18.20;99.90
5246;DHT22;54412;51.206;6.888;2022-10-31T17:45:23;18.20;99.90
5246;DHT22;54412;51.206;6.888;2022-10-31T17:47:52;18.20;99.90
5246;DHT22;54412;51.206;6.888;2022-10-31T17:50:21;18.20;99.90
5246;DHT22;54412;51.206;6.888;2022-10-31T17:52:49;18.10;99.90
5246;DHT22;54412;51.206;6.888;2022-10-31T17:55:15;18.10;99.90
5246;DHT22;54412;51.206;6.888;2022-10-31T17:57:42;18.10;99.90
5246;DHT22;54412;51.206;6.888;2022-10-31T18:00:13;18.10;99.90
5246;DHT22;54412;51.206;6.888;2022-10-31T18:02:40;18.10;99.90
5246;DHT22;54412;51.206;6.888;2022-10-31T18:05:06;18.10;99.90
5246;DHT22;54412;51.206;6.888;2022-10-31T18:07:32;18.10;99.90
5246;DHT22;54412;51.206;6.888;2022-10-31T18:09:59;18.10;99.90
5246;DHT22;54412;51.206;6.888;2022-10-31T18:12:25;18.00;99.90
5246;DHT22;54412;51.206;6.888;2022-10-31T18:14:52;17.90;99.90
5246;DHT22;54412;51.206;6.888;2022-10-31T18:17:18;17.90;99.90
5246;DHT22;54412;51.206;6.888;2022-10-31T18:19:44;17.90;99.90
5246;DHT22;54412;51.206;6.888;2022-10-31T18:22:10;17.90;99.90
5246;DHT22;54412;51.206;6.888;2022-10-31T18:24:36;17.90;99.90
5246;DHT22;54412;51.206;6.888;2022-10-31T18:27:02;17.90;99.90
5246;DHT22;54412;51.206;6.888;2022-10-31T18:29:28;17.80;99.90
5246;DHT22;54412;51.206;6.888;2022-10-31T18:31:54;17.70;99.90
5246;DHT22;54412;51.206;6.888;2022-10-31T18:34:19;17.70;99.90
5246;DHT22;54412;51.206;6.888;2022-10-31T18:36:45;17.70;99.90
5246;DHT22;54412;51.206;6.888;2022-10-31T18:39:11;17.60;99.90
5246;DHT22;54412;51.206;6.888;2022-10-31T18:41:38;17.60;99.90
5246;DHT22;54412;51.206;6.888;2022-10-31T18:44:05;17.60;99.90
5246;DHT22;54412;51.206;6.888;2022-10-31T18:46:32;17.60;99.90
5246;DHT22;54412;51.206;6.888;2022-10-31T18:48:59;17.60;99.90